To NAV CANADA Home Page Login to a new session Search on AWWS site Disclaimer Vers la page française équivalente Tips FAQ What's new on the site To the Forecasts and Observations / NOTAM section To "File a Flight Plan" website Publications and other links Update of the User's profile FIC Telephone Numbers My Weather Data Folder Route Weather Data Regional Weather Data Local Weather Data To the Forecasts and Observations / NOTAM section
Request Generated 10/19/2018 at 15:35:15 UTC . Weather information available at that time is displayed.

METAR/TAF

BURWASH/YT    (show WxCam)

METAR CYDB 191500Z 13017G24KT 10SM -RASN OVC040 01/01 A2941 RMK SC8 PRESFR SLP993=
METAR CYDB 191400Z CCA 13017G26KT 10SM -RASN BKN050 OVC085 02/01 A2949 RMK SC5AC3 CLIMAT 9.0/1.0/1.8MM/TR CM/TR MWE/41997 SLP019=
METAR CYDB 191400Z 13017G26KT 10SM BKN050 OVC085 02/01 A2949 RMK SC5AC3 CLIMAT 9.0/1.0/1.8MM/TR CM/TR MWE/41997 SLP019=
SPECI CYDB 191335Z AUTO 13013G24KT 9SM -RA BKN095 BKN140 OVC160 02/01 A2951 RMK SLP025=
METAR CYDB 191300Z AUTO 12016G23KT 9SM BKN100 BKN130 02/00 A2955 RMK PRESFR SLP040=

TAF CYDB 191142Z 1912/1924 13012G22KT P6SM -RA OVC040 TEMPO 1912/1916
5SM -RASN BR BKN020 OVC030
FM191600 13015G25KT P6SM SCT040 BKN200 TEMPO 1916/1918 BKN040
BECMG 1916/1918 12020G30KT
FM191800 13020G30KT P6SM SCT200
BECMG 1920/1922 13030G40KT
RMK FCST BASED ON AUTO OBS. NXT FCST BY 191800Z=
Your time UTC time
Weather data provided by Environment Canada and NAV CANADA